Time;durP1;ratioP1;P1;durP2;ratioP2;P2;SDS_P1;SDS_P2;PMS_P1;PMS_P2;Temp;Humidity;BMP_temperature;BMP_pressure;BME280_temperature;BME280_humidity;BME280_pressure;Samples;Min_cycle;Max_cycle;Signal;HPM_P1;HPM_P2
2022/03/25 00:00:24;;;;;;;0.60;0.60;;;0.70;99.90;;;;;;5074556;28;20197;-84
2022/03/25 00:02:50;;;;;;;0.65;0.65;;;0.80;99.90;;;;;;5056284;28;20201;-85
2022/03/25 00:05:16;;;;;;;0.68;0.68;;;0.80;99.90;;;;;;5056695;28;20346;-85
2022/03/25 00:07:42;;;;;;;0.63;0.63;;;0.90;99.90;;;;;;5072326;28;20703;-86
2022/03/25 00:10:08;;;;;;;0.60;0.60;;;1.00;99.90;;;;;;5077874;28;20196;-86
2022/03/25 00:12:34;;;;;;;0.70;0.70;;;1.10;99.90;;;;;;5077338;28;20571;-86
2022/03/25 00:14:59;;;;;;;0.60;0.60;;;1.10;99.90;;;;;;5078008;28;20200;-86
2022/03/25 00:17:25;;;;;;;0.80;0.80;;;1.10;99.90;;;;;;5077644;28;20220;-86
2022/03/25 00:19:51;;;;;;;1.08;1.00;;;1.00;99.90;;;;;;5095733;28;20215;-87
2022/03/25 00:22:17;;;;;;;0.60;0.60;;;0.80;99.90;;;;;;5077811;28;20237;-86
2022/03/25 00:24:43;;;;;;;1.02;1.02;;;0.60;99.90;;;;;;5077096;28;20196;-85
2022/03/25 00:27:09;;;;;;;0.73;0.73;;;0.50;99.90;;;;;;5078450;28;20200;-85
2022/03/25 00:29:35;;;;;;;0.70;0.70;;;0.50;99.90;;;;;;5077582;28;20204;-85
2022/03/25 00:32:02;;;;;;;0.93;0.93;;;0.60;99.90;;;;;;5078131;28;20203;-86
2022/03/25 00:34:28;;;;;;;0.70;0.70;;;0.80;99.90;;;;;;5077175;28;20200;-85
2022/03/25 00:36:54;;;;;;;0.75;0.75;;;0.90;99.90;;;;;;5095849;28;20203;-86
2022/03/25 00:39:20;;;;;;;0.73;0.73;;;1.00;99.90;;;;;;5077231;28;20199;-86
2022/03/25 00:41:47;;;;;;;0.70;0.70;;;1.10;99.90;;;;;;5077527;28;20241;-86
2022/03/25 00:44:13;;;;;;;1.42;1.10;;;1.10;99.90;;;;;;5077003;28;20215;-84
2022/03/25 00:46:40;;;;;;;4.75;1.63;;;1.00;99.90;;;;;;5076982;28;20286;-85
2022/03/25 00:49:06;;;;;;;0.70;0.70;;;0.90;99.90;;;;;;5083498;28;20204;-86
2022/03/25 00:51:32;;;;;;;0.55;0.55;;;0.90;99.90;;;;;;5095123;28;20192;-85
2022/03/25 00:53:58;;;;;;;0.50;0.50;;;0.80;99.90;;;;;;5096049;28;20212;-85
2022/03/25 00:56:24;;;;;;;0.70;0.70;;;0.70;99.90;;;;;;5078101;28;20226;-86
2022/03/25 00:58:51;;;;;;;0.60;0.60;;;0.60;99.90;;;;;;5095287;28;20667;-85
2022/03/25 01:01:17;;;;;;;1.92;1.48;;;0.50;99.90;;;;;;5076462;28;20231;-85
2022/03/25 01:03:43;;;;;;;16.55;2.45;;;0.40;99.90;;;;;;5094394;28;20647;-84
2022/03/25 01:06:09;;;;;;;0.75;0.75;;;0.20;99.90;;;;;;5076014;28;20193;-86
2022/03/25 01:08:35;;;;;;;1.00;1.00;;;0.10;99.90;;;;;;5094107;28;20707;-84
2022/03/25 01:11:04;;;;;;;0.80;0.80;;;0.00;99.90;;;;;;5071903;28;20239;-86
2022/03/25 01:13:33;;;;;;;0.70;0.70;;;-0.10;99.90;;;;;;5055772;28;20196;-85
2022/03/25 01:16:05;;;;;;;0.65;0.65;;;0.10;99.90;;;;;;5074129;28;20640;-85
2022/03/25 01:18:31;;;;;;;1.20;1.20;;;0.10;99.90;;;;;;5073491;28;20200;-84
2022/03/25 01:20:57;;;;;;;0.60;0.60;;;0.20;99.90;;;;;;5072715;28;20607;-85
2022/03/25 01:23:24;;;;;;;0.55;0.55;;;0.20;99.90;;;;;;5054395;28;20193;-83
2022/03/25 01:25:50;;;;;;;1.48;1.23;;;0.20;99.90;;;;;;5072619;28;20181;-85
2022/03/25 01:28:15;;;;;;;0.75;0.73;;;0.30;99.90;;;;;;5054724;28;20265;-84
2022/03/25 01:30:42;;;;;;;0.60;0.60;;;0.40;99.90;;;;;;5084332;28;20200;-86
2022/03/25 01:33:09;;;;;;;0.70;0.70;;;0.40;99.90;;;;;;5074559;28;20663;-85
2022/03/25 01:35:35;;;;;;;0.70;0.70;;;0.30;99.90;;;;;;5091318;28;20203;-85
2022/03/25 01:38:01;;;;;;;0.60;0.60;;;0.20;99.90;;;;;;5091699;28;20236;-85
2022/03/25 01:40:28;;;;;;;0.68;0.68;;;0.10;99.90;;;;;;5074940;28;20224;-86
2022/03/25 01:42:53;;;;;;;0.68;0.68;;;-0.10;99.90;;;;;;5075346;28;20278;-86
2022/03/25 01:45:40;;;;;;;0.75;0.75;;;-0.10;99.90;;;;;;5075773;28;20278;-85
2022/03/25 01:48:11;;;;;;;0.90;0.90;;;-0.20;99.90;;;;;;5078878;28;20200;-83
2022/03/25 01:50:39;;;;;;;0.80;0.80;;;-0.20;99.90;;;;;;5078562;28;20192;-85
2022/03/25 01:53:23;;;;;;;1.15;1.15;;;-0.20;99.90;;;;;;5078811;28;20655;-85
2022/03/25 01:55:52;;;;;;;0.70;0.70;;;-0.10;99.90;;;;;;5079239;28;20541;-84
2022/03/25 01:58:18;;;;;;;3.50;2.20;;;-0.10;99.90;;;;;;5079764;28;20211;-84
2022/03/25 02:00:45;;;;;;;0.60;0.60;;;-0.10;99.90;;;;;;5097533;28;20199;-84
2022/03/25 02:03:10;;;;;;;0.70;0.70;;;-0.10;99.90;;;;;;5079519;28;20204;-84
2022/03/25 02:05:36;;;;;;;0.80;0.80;;;-0.10;99.90;;;;;;5078651;28;20257;-84
2022/03/25 02:08:03;;;;;;;1.95;1.10;;;0.00;99.90;;;;;;5074761;28;20231;-85
2022/03/25 02:10:29;;;;;;;0.68;0.68;;;-0.10;99.90;;;;;;5077323;28;20200;-86
2022/03/25 02:12:57;;;;;;;0.60;0.60;;;-0.10;99.90;;;;;;5077653;28;20231;-85
2022/03/25 02:15:37;;;;;;;0.70;0.70;;;-0.20;99.90;;;;;;5077505;28;20254;-84
2022/03/25 02:18:12;;;;;;;4.30;1.90;;;-0.10;99.90;;;;;;5076978;28;20219;-84
2022/03/25 02:20:39;;;;;;;0.88;0.88;;;-0.10;99.90;;;;;;5076942;28;20675;-84
2022/03/25 02:23:06;;;;;;;0.60;0.60;;;0.00;99.90;;;;;;5075904;28;20215;-84
2022/03/25 02:25:32;;;;;;;1.98;1.63;;;0.00;99.90;;;;;;5075761;28;20193;-85
2022/03/25 02:27:59;;;;;;;0.75;0.75;;;0.00;99.90;;;;;;5076556;28;20661;-86
2022/03/25 02:30:26;;;;;;;0.60;0.60;;;-0.10;99.90;;;;;;5072417;28;20216;-86
2022/03/25 02:32:53;;;;;;;0.80;0.80;;;-0.10;99.90;;;;;;5072378;28;20660;-85
2022/03/25 02:35:19;;;;;;;1.00;1.00;;;-0.10;99.90;;;;;;5057002;28;20217;-84
2022/03/25 02:37:45;;;;;;;0.70;0.70;;;-0.10;99.90;;;;;;5056220;28;20236;-82
2022/03/25 02:40:11;;;;;;;0.73;0.73;;;-0.10;99.90;;;;;;5075552;28;20639;-83
2022/03/25 02:42:37;;;;;;;0.80;0.80;;;-0.20;99.90;;;;;;5092997;28;20553;-85
2022/03/25 02:45:04;;;;;;;0.60;0.60;;;-0.20;99.90;;;;;;5075934;28;20551;-83
2022/03/25 02:47:29;;;;;;;0.80;0.80;;;-0.20;99.90;;;;;;5075696;28;20219;-85
2022/03/25 02:49:55;;;;;;;0.75;0.75;;;-0.30;99.90;;;;;;5076864;28;20193;-85
2022/03/25 02:52:21;;;;;;;0.75;0.75;;;-0.30;99.90;;;;;;5075717;28;20537;-84
2022/03/25 02:54:47;;;;;;;0.60;0.60;;;-0.30;99.90;;;;;;5074339;28;20723;-84
2022/03/25 02:57:12;;;;;;;1.50;1.40;;;-0.40;99.90;;;;;;5073223;28;20204;-84
2022/03/25 02:59:41;;;;;;;0.65;0.65;;;-0.40;99.90;;;;;;5074079;28;20613;-84
2022/03/25 03:02:07;;;;;;;0.80;0.80;;;-0.50;99.90;;;;;;5072994;28;20212;-86
2022/03/25 03:04:33;;;;;;;0.70;0.70;;;-0.50;99.90;;;;;;5074370;28;20601;-85
2022/03/25 03:06:59;;;;;;;0.60;0.60;;;-0.60;99.90;;;;;;5074028;28;20638;-86
2022/03/25 03:09:25;;;;;;;11.65;1.75;;;-0.60;99.90;;;;;;5074262;28;20204;-85
2022/03/25 03:11:51;;;;;;;1.73;1.02;;;-0.70;99.90;;;;;;5074135;28;20211;-85
2022/03/25 03:14:20;;;;;;;1.15;1.15;;;-0.80;99.90;;;;;;5073299;28;20833;-84
2022/03/25 03:16:46;;;;;;;0.75;0.75;;;-0.80;99.90;;;;;;5074293;28;20200;-85
2022/03/25 03:19:12;;;;;;;0.80;0.80;;;-0.90;99.90;;;;;;5073198;28;20305;-84
2022/03/25 03:21:38;;;;;;;0.70;0.70;;;-0.80;99.90;;;;;;5072956;28;20342;-85
2022/03/25 03:24:04;;;;;;;0.80;0.80;;;-0.80;99.90;;;;;;5073189;28;20300;-85
2022/03/25 03:26:30;;;;;;;0.70;0.70;;;-0.80;99.90;;;;;;5074775;28;20217;-85
2022/03/25 03:28:56;;;;;;;0.77;0.77;;;-0.70;99.90;;;;;;5073279;28;20232;-86
2022/03/25 03:31:22;;;;;;;0.70;0.70;;;-0.70;99.90;;;;;;5069481;28;20201;-84
2022/03/25 03:33:48;;;;;;;1.02;1.02;;;-0.60;99.90;;;;;;5053409;28;20201;-84
2022/03/25 03:36:13;;;;;;;0.70;0.70;;;-0.40;99.90;;;;;;5068323;28;20590;-85
2022/03/25 03:38:39;;;;;;;0.77;0.77;;;-0.50;99.90;;;;;;5073699;28;20200;-85
2022/03/25 03:41:05;;;;;;;1.02;1.02;;;-0.50;99.90;;;;;;5073291;28;20197;-85
2022/03/25 03:43:31;;;;;;;0.68;0.68;;;-0.60;99.90;;;;;;5072694;28;20257;-86
2022/03/25 03:45:56;;;;;;;0.70;0.70;;;-0.50;99.90;;;;;;5072840;28;20199;-86
2022/03/25 03:48:22;;;;;;;0.70;0.70;;;-0.50;99.90;;;;;;5072637;28;20350;-84
2022/03/25 03:50:49;;;;;;;0.85;0.85;;;-0.40;99.90;;;;;;5072613;28;20192;-85
2022/03/25 03:53:14;;;;;;;0.75;0.75;;;-0.40;99.90;;;;;;5072698;28;20205;-85
2022/03/25 03:55:40;;;;;;;0.55;0.55;;;-0.40;99.90;;;;;;5052419;28;20205;-85
2022/03/25 03:58:06;;;;;;;0.73;0.73;;;-0.50;99.90;;;;;;5036567;28;20209;-84
2022/03/25 04:00:32;;;;;;;0.70;0.70;;;-0.70;99.90;;;;;;5039940;28;20212;-84
2022/03/25 04:02:58;;;;;;;0.80;0.80;;;-0.80;99.90;;;;;;5071436;28;20604;-84
2022/03/25 04:05:24;;;;;;;0.55;0.55;;;-0.80;99.90;;;;;;5052408;28;20205;-85
2022/03/25 04:07:49;;;;;;;1.73;1.60;;;-0.90;99.90;;;;;;5057679;28;20323;-84
2022/03/25 04:10:17;;;;;;;0.75;0.75;;;-1.00;99.90;;;;;;5071800;28;20246;-85
2022/03/25 04:12:43;;;;;;;0.93;0.93;;;-1.00;99.90;;;;;;5072554;28;20599;-84
2022/03/25 04:15:11;;;;;;;0.80;0.80;;;-1.10;99.90;;;;;;5072032;28;20246;-84
2022/03/25 04:17:41;;;;;;;0.90;0.90;;;-1.10;99.90;;;;;;5072407;28;20277;-84
2022/03/25 04:20:09;;;;;;;0.60;0.60;;;-1.20;99.90;;;;;;5072494;28;20189;-85
2022/03/25 04:22:34;;;;;;;1.20;1.10;;;-1.20;99.90;;;;;;5072245;28;20196;-85
2022/03/25 04:25:00;;;;;;;0.85;0.85;;;-1.10;99.90;;;;;;5072914;28;20211;-84
2022/03/25 04:27:26;;;;;;;1.77;1.63;;;-1.10;99.90;;;;;;5072385;28;20196;-85
2022/03/25 04:29:52;;;;;;;1.10;1.10;;;-1.10;99.90;;;;;;5068612;28;20232;-82
2022/03/25 04:32:18;;;;;;;0.70;0.70;;;-1.00;99.90;;;;;;5066456;28;20197;-85
2022/03/25 04:34:43;;;;;;;0.60;0.60;;;-1.00;99.90;;;;;;5088413;28;20291;-85
2022/03/25 04:37:10;;;;;;;1.33;1.23;;;-1.00;99.90;;;;;;5071405;28;20262;-86
2022/03/25 04:39:37;;;;;;;0.70;0.70;;;-1.00;99.90;;;;;;5072131;28;20197;-85
2022/03/25 04:42:03;;;;;;;0.70;0.70;;;-1.10;99.90;;;;;;5072858;28;20276;-85
2022/03/25 04:44:29;;;;;;;2.28;1.45;;;-1.10;99.90;;;;;;5072383;28;20251;-85
2022/03/25 04:46:56;;;;;;;0.80;0.80;;;-1.10;99.90;;;;;;5072206;28;20300;-85
2022/03/25 04:49:22;;;;;;;0.80;0.80;;;-1.10;99.90;;;;;;5071861;28;20193;-85
2022/03/25 04:51:48;;;;;;;0.70;0.70;;;-0.90;99.90;;;;;;5071970;28;20197;-84
2022/03/25 04:54:14;;;;;;;0.80;0.80;;;-0.80;99.90;;;;;;5072753;28;20664;-85
2022/03/25 04:56:40;;;;;;;0.90;0.90;;;-0.70;99.90;;;;;;5072489;28;20223;-85
2022/03/25 04:59:06;;;;;;;1.45;1.35;;;-0.70;99.90;;;;;;5072750;28;20711;-85
2022/03/25 05:01:34;;;;;;;0.70;0.70;;;-0.50;99.90;;;;;;5072218;28;20231;-85
2022/03/25 05:04:00;;;;;;;0.65;0.65;;;-0.50;99.90;;;;;;5072593;28;20201;-85
2022/03/25 05:06:26;;;;;;;0.80;0.80;;;-0.50;99.90;;;;;;5072517;28;20270;-85
2022/03/25 05:08:52;;;;;;;0.80;0.80;;;-0.50;99.90;;;;;;5072869;28;20284;-86
2022/03/25 05:11:18;;;;;;;0.70;0.70;;;-0.50;99.90;;;;;;5072504;28;20197;-86
2022/03/25 05:13:44;;;;;;;0.75;0.75;;;-0.50;99.90;;;;;;5073024;28;20567;-85
2022/03/25 05:16:09;;;;;;;0.85;0.85;;;-0.50;99.90;;;;;;5072526;28;20193;-84
2022/03/25 05:18:35;;;;;;;0.90;0.90;;;-0.50;99.90;;;;;;5071185;28;20207;-85
2022/03/25 05:21:01;;;;;;;0.55;0.55;;;-0.60;99.90;;;;;;5073636;28;20207;-85
2022/03/25 05:23:27;;;;;;;0.80;0.80;;;-0.60;99.90;;;;;;5075077;28;20193;-85
2022/03/25 05:25:53;;;;;;;0.70;0.70;;;-0.70;99.90;;;;;;5075174;28;20200;-85
2022/03/25 05:28:19;;;;;;;1.80;1.70;;;-0.50;99.90;;;;;;5075651;28;20197;-85
2022/03/25 05:30:45;;;;;;;1.25;1.02;;;-0.40;99.90;;;;;;5076993;28;20197;-86
2022/03/25 05:33:11;;;;;;;0.52;0.52;;;-0.20;99.90;;;;;;5077129;28;20208;-89
2022/03/25 05:35:40;;;;;;;0.70;0.70;;;-0.10;99.90;;;;;;5077265;28;20207;-88
2022/03/25 05:38:06;;;;;;;0.60;0.60;;;-0.10;99.90;;;;;;5076998;28;20209;-87
2022/03/25 05:40:32;;;;;;;0.68;0.68;;;-0.10;99.90;;;;;;5075925;28;20283;-83
2022/03/25 05:42:57;;;;;;;1.35;1.25;;;-0.10;99.90;;;;;;5076648;28;20197;-85
2022/03/25 05:45:24;;;;;;;1.42;1.33;;;-0.30;99.90;;;;;;5075375;28;20196;-84
2022/03/25 05:47:50;;;;;;;22.52;2.75;;;-0.50;99.90;;;;;;5075450;28;20280;-84
2022/03/25 05:50:16;;;;;;;0.85;0.85;;;-0.60;99.90;;;;;;5074995;28;20226;-84
2022/03/25 05:52:43;;;;;;;0.80;0.80;;;-0.60;99.90;;;;;;5074888;28;20201;-84
2022/03/25 05:55:13;;;;;;;1.38;1.27;;;-0.60;99.90;;;;;;5075224;28;20287;-84
2022/03/25 05:57:39;;;;;;;1.00;1.00;;;-0.50;99.90;;;;;;5074123;28;20614;-83
2022/03/25 06:00:08;;;;;;;4.00;1.25;;;-0.30;99.90;;;;;;5067115;28;20687;-83
2022/03/25 06:02:35;;;;;;;0.70;0.70;;;-0.10;99.90;;;;;;5053954;28;20212;-84
2022/03/25 06:05:00;;;;;;;1.40;1.30;;;0.10;99.90;;;;;;5055441;28;20186;-84
2022/03/25 06:07:33;;;;;;;0.63;0.63;;;0.30;99.90;;;;;;5054012;28;20251;-84
2022/03/25 06:09:59;;;;;;;0.80;0.80;;;0.70;99.90;;;;;;5057778;28;20201;-84
2022/03/25 06:12:25;;;;;;;0.70;0.70;;;1.00;99.90;;;;;;5057333;28;20219;-85
2022/03/25 06:14:50;;;;;;;0.73;0.70;;;1.10;99.90;;;;;;5058192;28;20200;-84
2022/03/25 06:17:16;;;;;;;0.82;0.82;;;1.40;99.90;;;;;;5058053;28;20277;-84
2022/03/25 06:19:42;;;;;;;0.65;0.65;;;1.60;99.90;;;;;;5058057;28;20279;-84
2022/03/25 06:22:07;;;;;;;0.70;0.70;;;1.80;99.90;;;;;;5074729;28;20196;-84
2022/03/25 06:24:33;;;;;;;0.73;0.73;;;2.00;99.90;;;;;;5069585;28;20222;-84
2022/03/25 06:26:59;;;;;;;0.80;0.80;;;2.20;99.90;;;;;;5078044;28;20287;-84
2022/03/25 06:29:24;;;;;;;0.80;0.80;;;2.30;99.90;;;;;;5077481;28;20280;-83
2022/03/25 06:31:50;;;;;;;1.63;1.48;;;2.50;99.90;;;;;;5076221;28;20196;-85
2022/03/25 06:34:20;;;;;;;0.70;0.70;;;2.70;99.90;;;;;;5095817;28;20203;-83
2022/03/25 06:36:48;;;;;;;0.65;0.65;;;2.80;99.90;;;;;;5077853;28;20207;-84
2022/03/25 06:39:17;;;;;;;0.65;0.65;;;2.90;99.90;;;;;;5077740;28;20192;-84
2022/03/25 06:41:42;;;;;;;0.63;0.63;;;3.20;99.90;;;;;;5095647;28;20188;-85
2022/03/25 06:44:08;;;;;;;0.70;0.70;;;3.20;99.90;;;;;;5077545;28;20605;-84
2022/03/25 06:46:35;;;;;;;0.73;0.73;;;3.40;99.90;;;;;;5095160;28;20191;-84
2022/03/25 06:49:01;;;;;;;1.75;1.40;;;3.60;99.90;;;;;;5077118;28;20203;-83
2022/03/25 06:51:27;;;;;;;1.35;1.25;;;3.80;99.90;;;;;;5077026;28;20560;-84
2022/03/25 06:53:52;;;;;;;1.13;0.95;;;3.80;99.90;;;;;;5077279;28;20239;-85
2022/03/25 06:56:19;;;;;;;0.60;0.60;;;3.80;99.90;;;;;;5076966;28;20196;-84
2022/03/25 06:58:44;;;;;;;0.70;0.70;;;3.90;99.90;;;;;;5077378;28;20244;-85
2022/03/25 07:01:12;;;;;;;0.73;0.73;;;4.00;99.90;;;;;;5077216;28;20558;-85
2022/03/25 07:03:38;;;;;;;0.70;0.70;;;4.10;99.90;;;;;;5076991;28;20196;-85
2022/03/25 07:06:04;;;;;;;0.80;0.80;;;4.20;99.90;;;;;;5095138;28;20191;-87
2022/03/25 07:08:31;;;;;;;1.00;1.00;;;4.20;99.90;;;;;;5074714;28;20201;-85
2022/03/25 07:10:59;;;;;;;0.70;0.70;;;4.30;99.90;;;;;;5075256;28;20212;-85
2022/03/25 07:13:25;;;;;;;0.55;0.55;;;4.30;99.90;;;;;;5056679;28;20612;-85
2022/03/25 07:15:51;;;;;;;1.13;1.13;;;4.30;99.90;;;;;;5060420;28;20281;-85
2022/03/25 07:18:16;;;;;;;2.78;2.17;;;4.40;99.90;;;;;;5056946;28;20628;-85
2022/03/25 07:20:42;;;;;;;0.82;0.82;;;4.60;99.90;;;;;;5056547;28;20540;-84
2022/03/25 07:23:08;;;;;;;0.90;0.90;;;4.70;99.90;;;;;;5056955;28;20554;-86
2022/03/25 07:25:34;;;;;;;0.90;0.90;;;4.90;99.90;;;;;;5057174;28;20231;-86
2022/03/25 07:28:03;;;;;;;1.38;1.27;;;5.00;99.90;;;;;;5057784;28;20193;-86
2022/03/25 07:30:28;;;;;;;0.73;0.73;;;5.10;99.90;;;;;;5056302;28;20208;-87
2022/03/25 07:32:54;;;;;;;0.80;0.80;;;5.20;99.90;;;;;;5074479;28;20554;-86
2022/03/25 07:35:20;;;;;;;0.80;0.80;;;5.30;99.90;;;;;;5056234;28;20205;-86
2022/03/25 07:37:46;;;;;;;0.90;0.90;;;5.50;99.90;;;;;;5056524;28;20666;-86
2022/03/25 07:40:13;;;;;;;0.80;0.80;;;5.50;99.90;;;;;;5056771;28;20236;-87
2022/03/25 07:42:41;;;;;;;0.77;0.77;;;5.50;99.90;;;;;;5056383;28;20731;-85
2022/03/25 07:45:11;;;;;;;0.70;0.70;;;5.40;99.90;;;;;;5057032;28;20223;-86
2022/03/25 07:47:48;;;;;;;0.65;0.65;;;5.30;99.90;;;;;;5075166;28;20655;-86
2022/03/25 07:50:17;;;;;;;0.60;0.60;;;5.10;99.90;;;;;;5050105;28;20208;-86
2022/03/25 07:52:43;;;;;;;7.43;1.35;;;5.10;99.90;;;;;;5073747;28;20323;-86
2022/03/25 07:55:10;;;;;;;1.90;1.10;;;5.30;99.90;;;;;;5057338;28;20601;-86
2022/03/25 07:57:37;;;;;;;0.70;0.70;;;5.50;99.90;;;;;;5039577;28;20213;-86
2022/03/25 08:00:11;;;;;;;0.70;0.70;;;5.80;99.90;;;;;;5037103;28;20204;-86
2022/03/25 08:02:41;;;;;;;0.90;0.90;;;6.10;99.90;;;;;;5036733;28;20599;-87
2022/03/25 08:05:09;;;;;;;0.95;0.95;;;6.40;99.90;;;;;;5037336;28;20215;-86
2022/03/25 08:07:48;;;;;;;1.30;1.20;;;6.70;99.90;;;;;;5037266;28;20298;-87
2022/03/25 08:10:19;;;;;;;1.00;1.00;;;6.90;99.90;;;;;;5037662;28;20568;-88
2022/03/25 08:12:45;;;;;;;1.52;1.30;;;7.20;99.90;;;;;;5037287;28;20201;-87
2022/03/25 08:15:11;;;;;;;1.00;1.00;;;7.40;99.90;;;;;;5037565;28;20212;-86
2022/03/25 08:17:55;;;;;;;0.90;0.90;;;7.60;99.90;;;;;;5052648;28;20204;-87
2022/03/25 08:20:29;;;;;;;0.65;0.65;;;7.80;99.90;;;;;;5057867;28;20197;-86
2022/03/25 08:23:01;;;;;;;1.30;1.25;;;8.00;99.90;;;;;;5057632;28;20197;-88
2022/03/25 08:28:18;;;;;;;1.23;1.17;;;8.40;99.90;;;;;;5076263;28;20199;-87
2022/03/25 08:30:45;;;;;;;0.90;0.82;;;8.50;99.90;;;;;;5055028;28;20193;-88
2022/03/25 08:33:23;;;;;;;1.10;1.05;;;8.70;99.90;;;;;;5036763;28;20202;-88
2022/03/25 08:35:49;;;;;;;0.90;0.90;;;8.80;99.90;;;;;;5037298;28;20725;-88
2022/03/25 08:38:15;;;;;;;0.75;0.75;;;8.80;99.90;;;;;;5046821;28;20300;-89
2022/03/25 08:41:27;;;;;;;0.75;0.75;;;8.90;99.90;;;;;;5057409;28;20193;-88
2022/03/25 08:44:33;;;;;;;1.10;1.00;;;9.00;99.90;;;;;;5047032;28;20660;-86
2022/03/25 08:47:05;;;;;;;1.35;1.25;;;9.20;99.90;;;;;;5051072;28;20208;-91
2022/03/25 08:49:39;;;;;;;0.77;0.77;;;9.30;99.90;;;;;;5056460;28;20199;-87
2022/03/25 08:52:05;;;;;;;0.70;0.70;;;9.40;99.90;;;;;;5062586;28;20279;-87
2022/03/25 08:54:33;;;;;;;0.63;0.63;;;9.40;99.90;;;;;;5091860;28;20200;-84
2022/03/25 08:57:03;;;;;;;1.73;1.40;;;9.50;99.90;;;;;;5098559;28;20207;-88
2022/03/25 08:59:29;;;;;;;4.90;2.17;;;9.60;99.90;;;;;;5081687;28;20697;-89
2022/03/25 09:02:04;;;;;;;0.90;0.90;;;9.70;99.90;;;;;;5082516;28;20223;-88
2022/03/25 09:04:30;;;;;;;13.63;1.80;;;9.70;99.90;;;;;;5081660;28;20230;-88
2022/03/25 09:06:56;;;;;;;1.95;1.35;;;9.80;99.90;;;;;;5087220;28;20254;-88
2022/03/25 09:09:31;;;;;;;1.20;1.20;;;9.80;99.90;;;;;;5101590;28;20562;-87
2022/03/25 09:11:57;;;;;;;0.88;0.88;;;9.90;99.90;;;;;;5086959;28;20642;-87
2022/03/25 09:14:22;;;;;;;2.15;1.58;;;9.90;99.90;;;;;;5098283;28;20206;-89
2022/03/25 09:16:48;;;;;;;0.93;0.93;;;10.00;99.90;;;;;;5082126;28;20561;-88
2022/03/25 09:19:14;;;;;;;0.75;0.75;;;10.10;99.90;;;;;;5082267;28;20195;-88
2022/03/25 09:21:40;;;;;;;1.00;1.00;;;10.20;99.90;;;;;;5082101;28;20199;-88
2022/03/25 09:24:06;;;;;;;3.05;1.58;;;10.20;99.90;;;;;;5082085;28;20253;-89
2022/03/25 09:26:33;;;;;;;0.85;0.85;;;10.30;99.90;;;;;;5100021;28;20192;-88
2022/03/25 09:28:58;;;;;;;1.02;0.90;;;10.30;99.90;;;;;;5081883;28;20192;-88
2022/03/25 09:31:24;;;;;;;0.68;0.68;;;10.50;99.90;;;;;;5077268;28;20565;-89
2022/03/25 09:33:50;;;;;;;0.60;0.60;;;10.60;99.90;;;;;;5061256;28;20192;-89
2022/03/25 09:36:16;;;;;;;2.70;2.03;;;10.60;99.90;;;;;;5061322;28;20561;-88
2022/03/25 09:38:41;;;;;;;1.33;1.23;;;10.70;99.90;;;;;;5078788;28;20266;-88
2022/03/25 09:41:08;;;;;;;0.60;0.60;;;10.80;99.90;;;;;;5061000;28;20199;-89
2022/03/25 09:43:34;;;;;;;4.15;0.80;;;10.90;99.90;;;;;;5060927;28;20228;-88
2022/03/25 09:46:01;;;;;;;0.82;0.82;;;10.80;99.90;;;;;;5087535;28;20689;-88
2022/03/25 09:48:26;;;;;;;1.52;1.42;;;10.90;99.90;;;;;;5081534;28;20238;-88
2022/03/25 09:50:52;;;;;;;0.73;0.73;;;10.80;99.90;;;;;;5081336;28;20192;-87
2022/03/25 09:53:18;;;;;;;2.25;1.30;;;10.80;99.90;;;;;;5081405;28;20226;-86
2022/03/25 09:55:46;;;;;;;0.73;0.73;;;10.80;99.90;;;;;;5079525;28;20215;-87
2022/03/25 09:58:19;;;;;;;1.90;1.45;;;10.80;99.90;;;;;;5061531;28;20624;-88
2022/03/25 10:00:52;;;;;;;1.33;1.23;;;10.90;99.90;;;;;;5078811;28;20197;-86
2022/03/25 10:03:47;;;;;;;0.68;0.68;;;10.90;99.90;;;;;;5077441;28;20216;-87
2022/03/25 10:06:15;;;;;;;0.80;0.80;;;11.00;99.90;;;;;;5051053;28;20676;-87
2022/03/25 10:08:42;;;;;;;0.60;0.60;;;11.00;99.90;;;;;;5078257;28;20231;-87
2022/03/25 10:11:27;;;;;;;1.45;1.20;;;11.10;99.90;;;;;;5077422;28;20253;-87
2022/03/25 10:14:19;;;;;;;0.60;0.60;;;11.10;99.90;;;;;;5077477;28;20682;-85
2022/03/25 10:16:46;;;;;;;0.80;0.80;;;11.00;99.90;;;;;;5077908;28;20751;-86
2022/03/25 10:19:24;;;;;;;1.38;1.25;;;11.10;99.90;;;;;;5078515;28;20200;-86
2022/03/25 10:21:56;;;;;;;0.73;0.73;;;11.10;99.90;;;;;;5078201;28;20196;-85
2022/03/25 10:24:40;;;;;;;1.17;1.10;;;11.10;99.90;;;;;;5077738;28;20202;-85
2022/03/25 10:27:07;;;;;;;0.82;0.82;;;11.10;99.90;;;;;;5077471;28;20578;-87
2022/03/25 10:29:42;;;;;;;0.95;0.95;;;11.10;99.90;;;;;;5078569;28;20200;-87
2022/03/25 10:32:18;;;;;;;0.60;0.60;;;11.20;99.90;;;;;;5080877;28;20294;-87
2022/03/25 10:34:44;;;;;;;0.60;0.60;;;11.20;99.90;;;;;;5078138;28;20553;-86
2022/03/25 10:37:13;;;;;;;0.65;0.65;;;11.20;99.90;;;;;;5078078;28;20231;-88
2022/03/25 10:39:39;;;;;;;0.60;0.60;;;11.20;99.90;;;;;;5077536;28;20222;-87
2022/03/25 10:42:08;;;;;;;0.80;0.80;;;11.20;99.90;;;;;;5077638;28;20196;-87
2022/03/25 10:45:25;;;;;;;1.48;1.38;;;11.20;99.90;;;;;;5077590;28;20242;-87
2022/03/25 10:48:17;;;;;;;1.08;1.00;;;11.20;99.90;;;;;;5078013;28;20201;-87
2022/03/25 10:51:01;;;;;;;0.65;0.65;;;11.30;99.90;;;;;;5077718;28;20196;-87
2022/03/25 10:53:29;;;;;;;0.80;0.80;;;11.40;99.90;;;;;;5093999;28;20292;-88
2022/03/25 10:56:06;;;;;;;0.77;0.77;;;11.40;99.90;;;;;;5077825;28;20295;-88
2022/03/25 10:58:32;;;;;;;0.80;0.80;;;11.40;99.90;;;;;;5093631;28;20207;-88
2022/03/25 11:00:59;;;;;;;0.60;0.60;;;11.50;99.90;;;;;;5077190;28;20287;-88
2022/03/25 11:03:25;;;;;;;0.68;0.68;;;11.50;99.90;;;;;;5077038;28;20192;-87
2022/03/25 11:05:52;;;;;;;0.65;0.65;;;11.40;99.90;;;;;;5076882;28;20218;-87
2022/03/25 11:08:18;;;;;;;0.60;0.60;;;11.50;99.90;;;;;;5064706;28;20211;-88
2022/03/25 11:10:44;;;;;;;0.60;0.60;;;11.50;99.90;;;;;;5056595;28;20665;-87
2022/03/25 11:13:10;;;;;;;0.65;0.65;;;11.50;99.90;;;;;;5058838;28;20235;-88
2022/03/25 11:15:38;;;;;;;1.20;1.15;;;11.50;99.90;;;;;;5055957;28;20549;-86
2022/03/25 11:18:04;;;;;;;1.60;1.50;;;11.60;99.90;;;;;;5073490;28;20213;-87
2022/03/25 11:20:56;;;;;;;0.98;0.98;;;11.70;99.90;;;;;;5056336;28;20197;-87
2022/03/25 11:23:31;;;;;;;1.00;0.77;;;11.80;99.90;;;;;;5047732;28;20193;-88
2022/03/25 11:26:01;;;;;;;0.55;0.55;;;12.00;99.90;;;;;;5074188;28;20575;-88
2022/03/25 11:28:30;;;;;;;0.50;0.50;;;12.10;99.90;;;;;;5056195;28;20644;-87
2022/03/25 11:31:05;;;;;;;2.05;0.90;;;12.10;99.90;;;;;;5052974;28;20228;-88
2022/03/25 11:33:31;;;;;;;0.85;0.85;;;12.20;99.90;;;;;;5037049;28;20558;-87
2022/03/25 11:36:26;;;;;;;0.60;0.60;;;12.30;99.90;;;;;;5037487;28;20205;-88
2022/03/25 11:39:21;;;;;;;0.90;0.90;;;12.30;99.90;;;;;;5070938;28;20224;-86
2022/03/25 11:41:47;;;;;;;1.70;0.90;;;12.40;99.90;;;;;;5074358;28;20195;-85
2022/03/25 11:44:25;;;;;;;1.58;0.80;;;12.60;99.90;;;;;;5056580;28;20196;-89
2022/03/25 11:47:00;;;;;;;0.50;0.50;;;12.90;99.90;;;;;;5056041;28;20707;-87
2022/03/25 11:49:38;;;;;;;0.60;0.60;;;13.20;99.90;;;;;;5056531;28;20675;-88
2022/03/25 11:52:24;;;;;;;1.00;0.95;;;13.50;99.90;;;;;;5055528;28;20562;-88
2022/03/25 11:54:55;;;;;;;0.50;0.50;;;13.60;99.90;;;;;;5055172;28;20241;-86
2022/03/25 11:57:29;;;;;;;0.50;0.50;;;13.60;99.90;;;;;;5070253;28;20212;-88
2022/03/25 11:59:58;;;;;;;1.17;0.70;;;13.60;99.90;;;;;;5075508;28;20195;-88
2022/03/25 12:02:37;;;;;;;0.70;0.70;;;13.60;99.90;;;;;;5075326;28;20275;-88
2022/03/25 12:05:24;;;;;;;0.55;0.55;;;13.60;99.90;;;;;;5058712;28;20211;-88
2022/03/25 12:08:21;;;;;;;0.40;0.40;;;13.70;99.90;;;;;;5088206;28;20245;-86
2022/03/25 12:10:49;;;;;;;0.65;0.65;;;13.90;99.90;;;;;;5095439;28;20195;-87
2022/03/25 12:13:15;;;;;;;0.50;0.50;;;14.00;99.90;;;;;;5095394;28;20207;-86
2022/03/25 12:15:52;;;;;;;0.60;0.60;;;13.80;99.90;;;;;;5095540;28;20662;-87
2022/03/25 12:18:40;;;;;;;0.70;0.70;;;13.60;99.90;;;;;;5096115;28;20632;-87
2022/03/25 12:21:26;;;;;;;1.15;0.80;;;13.30;99.90;;;;;;5095409;28;20253;-87
2022/03/25 12:23:56;;;;;;;0.60;0.60;;;13.00;99.90;;;;;;5085367;28;20238;-86
2022/03/25 12:26:32;;;;;;;1.30;1.20;;;12.80;99.90;;;;;;5095162;28;20202;-87
2022/03/25 12:28:58;;;;;;;0.50;0.50;;;12.50;99.90;;;;;;5095334;28;20662;-87
2022/03/25 12:31:51;;;;;;;0.80;0.80;;;12.40;99.90;;;;;;5094758;28;20194;-87
2022/03/25 12:34:17;;;;;;;3.63;1.05;;;12.40;99.90;;;;;;5075137;28;20735;-87
2022/03/25 12:36:56;;;;;;;0.50;0.50;;;12.30;99.90;;;;;;5092243;28;20209;-87
2022/03/25 12:39:22;;;;;;;0.50;0.50;;;12.30;99.90;;;;;;5075327;28;20226;-88
2022/03/25 12:41:51;;;;;;;0.50;0.50;;;12.30;99.90;;;;;;5092336;28;20188;-87
2022/03/25 12:44:30;;;;;;;0.50;0.50;;;12.30;99.90;;;;;;5092352;28;20291;-86
2022/03/25 12:47:27;;;;;;;0.65;0.65;;;12.20;99.90;;;;;;5076097;28;20207;-87
2022/03/25 12:49:56;;;;;;;0.50;0.50;;;12.10;99.90;;;;;;5062758;28;20574;-88
2022/03/25 12:52:35;;;;;;;;;;;;;;;;;;;;;
2022/03/25 12:55:43;;;;;;;;;;;;;;;;;;;;;
2022/03/25 12:58:13;;;;;;;0.50;0.50;;;11.80;99.90;;;;;;5086030;28;20569;-88
2022/03/25 13:00:56;;;;;;;0.60;0.60;;;11.80;99.90;;;;;;5090477;28;20192;-88
2022/03/25 13:03:31;;;;;;;0.50;0.50;;;11.70;99.90;;;;;;5095193;28;20662;-88
2022/03/25 13:06:08;;;;;;;0.50;0.50;;;11.70;99.90;;;;;;5094851;28;20217;-88